createdAt,value
2019-04-20T00:00:12.587Z,1028.01
2019-04-20T00:01:03.725Z,1028.01
2019-04-20T00:02:17.165Z,1027.95
2019-04-20T00:03:03.344Z,1027.95
2019-04-20T00:04:03.476Z,1027.95
2019-04-20T00:05:03.645Z,1027.95
2019-04-20T00:06:03.875Z,1027.89
2019-04-20T00:07:02.342Z,1027.89
2019-04-20T00:08:19.709Z,1027.89
2019-04-20T00:09:18.805Z,1027.89
2019-04-20T00:10:18.533Z,1027.9
2019-04-20T00:11:23.427Z,1027.9
2019-04-20T00:12:22.173Z,1027.9
2019-04-20T00:13:33.239Z,1027.9
2019-04-20T00:14:19.284Z,1027.95
2019-04-20T00:15:04.880Z,1027.95
2019-04-20T00:16:02.372Z,1027.95
2019-04-20T00:17:03.462Z,1027.95
2019-04-20T00:18:08.895Z,1027.8
2019-04-20T00:19:07.217Z,1027.8
2019-04-20T00:20:20.479Z,1027.8
2019-04-20T00:21:11.803Z,1027.8
2019-04-20T00:22:11.814Z,1027.92
2019-04-20T00:23:03.726Z,1027.92
2019-04-20T00:24:20.169Z,1027.92
2019-04-20T00:25:15.980Z,1027.92
2019-04-20T00:26:32.188Z,1027.7
2019-04-20T00:28:40.796Z,1027.7
2019-04-20T00:29:53.315Z,1027.7
2019-04-20T06:15:43.000Z,1027.7
2019-04-20T06:17:04.754Z,1027.7
2019-04-20T06:17:52.865Z,1027.7
2019-04-20T06:18:44.294Z,1027.7
2019-04-20T06:19:38.347Z,1028.57
2019-04-20T06:21:39.530Z,1028.57
2019-04-20T06:24:06.543Z,1028.67
2019-04-20T06:24:39.896Z,1028.67
2019-04-20T06:26:44.149Z,1028.67
2019-04-20T06:28:01.022Z,1028.6
2019-04-20T06:28:40.050Z,1028.6
2019-04-20T06:29:41.323Z,1028.6
2019-04-20T06:30:45.291Z,1028.6
2019-04-20T06:31:57.461Z,1028.8
2019-04-20T06:33:11.510Z,1028.8
2019-04-20T06:34:30.151Z,1028.8
2019-04-20T06:35:02.724Z,1028.8
2019-04-20T06:36:29.201Z,1028.85
2019-04-20T06:36:53.442Z,1028.85
2019-04-20T06:37:53.783Z,1028.85
2019-04-20T06:38:48.263Z,1028.85
2019-04-20T06:40:08.323Z,1028.8
2019-04-20T06:41:21.600Z,1028.8
2019-04-20T06:42:17.928Z,1028.8
2019-04-20T06:42:59.960Z,1028.78
2019-04-20T06:44:48.446Z,1028.78
2019-04-20T06:46:10.356Z,1028.78
2019-04-20T06:49:15.120Z,1028.82
2019-04-20T06:49:56.456Z,1028.82
2019-04-20T06:50:53.070Z,1028.99
2019-04-20T06:52:45.318Z,1028.99
2019-04-20T06:53:37.019Z,1028.99
2019-04-20T06:58:07.727Z,1028.88
2019-04-20T06:59:20.044Z,1029
2019-04-20T06:59:52.531Z,1029
2019-04-20T07:00:51.623Z,1029
2019-04-20T07:01:56.407Z,1029
2019-04-20T07:02:59.336Z,1028.8
2019-04-20T07:04:36.518Z,1028.8
2019-04-20T07:05:00.149Z,1028.8
2019-04-20T07:05:47.701Z,1028.8
2019-04-20T07:08:16.981Z,1028.89
2019-04-20T07:09:21.690Z,1028.89
2019-04-20T07:10:16.336Z,1028.89
2019-04-20T07:11:08.830Z,1028.91
2019-04-20T07:11:50.500Z,1028.91
2019-04-20T07:13:35.918Z,1028.91
2019-04-20T07:14:27.539Z,1028.95
2019-04-20T07:15:44.796Z,1028.95
2019-04-20T07:16:52.882Z,1028.95
2019-04-20T07:19:56.392Z,1028.93
2019-04-20T07:20:59.510Z,1028.93
2019-04-20T07:22:25.093Z,1028.93
2019-04-20T07:25:06.458Z,1029
2019-04-20T07:26:37.378Z,1028.97
2019-04-20T07:27:58.258Z,1028.97
2019-04-20T07:28:53.012Z,1028.97
2019-04-20T07:30:03.981Z,1028.97
2019-04-20T07:30:50.809Z,1028.89
2019-04-20T07:31:53.991Z,1028.89
2019-04-20T07:32:58.418Z,1028.89
2019-04-20T07:33:48.973Z,1028.89
2019-04-20T07:34:56.877Z,1028.95
2019-04-20T07:37:28.345Z,1028.95
2019-04-20T07:39:07.622Z,1028.99
2019-04-20T07:39:53.849Z,1028.99
2019-04-20T07:42:19.229Z,1028.99
2019-04-20T07:43:02.940Z,1028.92
2019-04-20T07:44:01.181Z,1028.92
2019-04-20T07:45:16.882Z,1028.92
2019-04-20T07:45:32.355Z,1028.92
2019-04-20T07:47:07.509Z,1028.81
2019-04-20T07:48:11.347Z,1028.81
2019-04-20T07:50:37.310Z,1028.99
2019-04-20T07:51:25.992Z,1028.99
2019-04-20T07:52:02.287Z,1028.99
2019-04-20T07:53:40.209Z,1028.99
2019-04-20T07:56:12.610Z,1028.95
2019-04-20T07:57:47.180Z,1028.95
2019-04-20T07:58:34.804Z,1029.01
2019-04-20T07:59:39.705Z,1029.01
2019-04-20T08:00:44.483Z,1029.01
2019-04-20T08:02:16.189Z,1029.01
2019-04-20T08:02:36.565Z,1029.04
2019-04-20T08:03:33.663Z,1029.04
2019-04-20T08:05:40.546Z,1029.04
2019-04-20T08:06:26.413Z,1028.87
2019-04-20T08:07:12.013Z,1028.87
2019-04-20T08:08:43.824Z,1028.87
2019-04-20T08:09:37.388Z,1028.87
2019-04-20T08:10:29.913Z,1028.93
2019-04-20T08:11:48.755Z,1028.93
2019-04-20T08:13:20.593Z,1028.93
2019-04-20T08:15:04.747Z,1029.11
2019-04-20T08:15:43.079Z,1029.11
2019-04-20T08:17:17.701Z,1029.11
2019-04-20T08:18:13.675Z,1029.11
2019-04-20T08:19:01.311Z,1029.09
2019-04-20T08:19:53.601Z,1029.09
2019-04-20T08:20:46.233Z,1029.09
2019-04-20T08:23:10.905Z,1028.98
2019-04-20T08:23:53.107Z,1028.98
2019-04-20T08:24:48.772Z,1028.98
2019-04-20T08:25:37.307Z,1029.14
2019-04-20T08:26:23.074Z,1029.14
2019-04-20T08:27:13.186Z,1029.14
2019-04-20T08:28:21.416Z,1029.14
2019-04-20T08:29:30.131Z,1029.07
2019-04-20T08:30:23.052Z,1029.07
2019-04-20T08:32:38.950Z,1029.07
2019-04-20T08:34:06.274Z,1029.18
2019-04-20T08:34:50.748Z,1029.18
2019-04-20T08:36:06.325Z,1029.18
2019-04-20T08:36:33.118Z,1029.18
2019-04-20T08:38:13.248Z,1029.23
2019-04-20T08:39:45.103Z,1029.23
2019-04-20T08:40:15.043Z,1029.23
2019-04-20T08:41:48.386Z,1029.11
2019-04-20T08:42:22.374Z,1029.11
2019-04-20T08:43:42.332Z,1029.11
2019-04-20T08:45:19.359Z,1029.11
2019-04-20T08:46:05.265Z,1029.22
2019-04-20T08:47:03.847Z,1029.22
2019-04-20T08:48:14.047Z,1029.22
2019-04-20T08:49:02.953Z,1029.22
2019-04-20T08:51:02.575Z,1029.2
2019-04-20T08:52:18.709Z,1029.2
2019-04-20T08:53:26.496Z,1029.2
2019-04-20T08:54:04.545Z,1029.23
2019-04-20T08:54:43.304Z,1029.23
2019-04-20T08:55:45.042Z,1029.23
2019-04-20T08:56:34.897Z,1029.23
2019-04-20T08:57:05.336Z,1029.24
2019-04-20T08:58:02.643Z,1029.24
2019-04-20T08:59:02.491Z,1029.24
2019-04-20T09:00:08.882Z,1029.24
2019-04-20T09:01:14.024Z,1029.24
2019-04-20T09:02:13.548Z,1029.24
2019-04-20T09:03:24.975Z,1029.24
2019-04-20T09:04:20.185Z,1029.24
2019-04-20T09:05:28.567Z,1029.24
2019-04-20T09:06:36.258Z,1029.24
2019-04-20T09:07:20.197Z,1029.24
2019-04-20T09:08:27.480Z,1029.24
2019-04-20T09:10:12.409Z,1029.17
2019-04-20T09:10:34.737Z,1029.17
2019-04-20T09:11:49.400Z,1029.17
2019-04-20T09:13:29.942Z,1029.2
2019-04-20T09:14:08.986Z,1029.2
2019-04-20T09:15:04.090Z,1029.2
2019-04-20T09:16:02.449Z,1029.2
2019-04-20T09:17:17.912Z,1029.12
2019-04-20T09:18:28.345Z,1029.12
2019-04-20T09:19:14.839Z,1029.12
2019-04-20T09:20:26.989Z,1029.12
2019-04-20T09:21:30.910Z,1029.12
2019-04-20T09:22:34.205Z,1029.12
2019-04-20T09:23:40.966Z,1029.12
2019-04-20T09:25:07.235Z,1029.12
2019-04-20T09:26:16.192Z,1029.13
2019-04-20T09:26:47.487Z,1029.13
2019-04-20T09:27:34.970Z,1029.13
2019-04-20T09:28:34.085Z,1029.13
2019-04-20T09:29:36.835Z,1029.18
2019-04-20T09:30:39.419Z,1029.18
2019-04-20T09:35:47.532Z,1029.2
2019-04-20T09:36:42.356Z,1029.2
2019-04-20T09:38:41.827Z,1029.25
2019-04-20T09:39:28.048Z,1029.25
2019-04-20T09:40:46.002Z,1029.25
2019-04-20T09:42:02.373Z,1029.07
2019-04-20T09:43:02.673Z,1029.07
2019-04-20T09:44:02.928Z,1029.07
2019-04-20T09:45:07.864Z,1029.15
2019-04-20T09:46:08.862Z,1029.15
2019-04-20T09:47:07.395Z,1029.15
2019-04-20T09:48:15.768Z,1029.15
2019-04-20T09:49:33.129Z,1029.22
2019-04-20T09:51:53.157Z,1029.22
2019-04-20T09:52:46.510Z,1029.22
2019-04-20T09:53:39.623Z,1029.09
2019-04-20T09:54:48.225Z,1029.09
2019-04-20T09:55:35.829Z,1029.09
2019-04-20T09:56:35.722Z,1029.09
2019-04-20T09:57:43.988Z,1029.12
2019-04-20T09:58:31.116Z,1029.12
2019-04-20T09:59:57.531Z,1029.12
2019-04-20T10:00:48.921Z,1029.08
2019-04-20T10:01:34.013Z,1029.08
2019-04-20T10:02:23.595Z,1029.08
2019-04-20T10:03:02.705Z,1029.08
2019-04-20T10:04:03.379Z,1029.09
2019-04-20T10:05:02.386Z,1029.09
2019-04-20T10:06:03.806Z,1029.09
2019-04-20T10:07:17.995Z,1029.09
2019-04-20T10:08:09.986Z,1029.09
2019-04-20T10:09:05.409Z,1029.09
2019-04-20T10:10:31.557Z,1029.09
2019-04-20T10:11:03.896Z,1029.09
2019-04-20T10:12:04.088Z,1028.98
2019-04-20T10:13:05.525Z,1028.98
2019-04-20T10:14:02.413Z,1028.98
2019-04-20T10:15:17.742Z,1028.98
2019-04-20T10:16:03.771Z,1028.94
2019-04-20T10:17:02.551Z,1028.94
2019-04-20T10:18:02.038Z,1028.94
2019-04-20T10:19:03.128Z,1028.94
2019-04-20T10:20:22.379Z,1028.97
2019-04-20T10:21:02.510Z,1028.97
2019-04-20T10:22:02.833Z,1028.97
2019-04-20T10:23:02.993Z,1028.97
2019-04-20T10:24:03.196Z,1029.06
2019-04-20T10:25:04.461Z,1029.06
2019-04-20T10:26:02.885Z,1029.06
2019-04-20T10:27:03.420Z,1029.06
2019-04-20T10:28:01.810Z,1029
2019-04-20T10:29:02.057Z,1029
2019-04-20T10:30:06.497Z,1029
2019-04-20T10:31:02.675Z,1029
2019-04-20T10:32:12.543Z,1028.92
2019-04-20T10:33:01.963Z,1028.92
2019-04-20T10:34:02.221Z,1028.92
2019-04-20T10:35:02.868Z,1028.92
2019-04-20T10:36:03.862Z,1028.91
2019-04-20T10:37:04.202Z,1028.91
2019-04-20T10:38:03.168Z,1028.91
2019-04-20T10:39:02.758Z,1028.91
2019-04-20T10:40:04.714Z,1028.93
2019-04-20T10:42:06.044Z,1028.93
2019-04-20T10:43:06.058Z,1028.93
2019-04-20T10:44:03.192Z,1028.94
2019-04-20T10:45:05.776Z,1028.94
2019-04-20T10:46:03.132Z,1028.94
2019-04-20T10:47:03.390Z,1028.94
2019-04-20T10:48:03.785Z,1028.86
2019-04-20T10:49:07.699Z,1028.86
2019-04-20T10:50:03.371Z,1028.86
2019-04-20T10:51:03.564Z,1028.86
2019-04-20T10:52:02.285Z,1028.93
2019-04-20T10:53:01.992Z,1028.93
2019-04-20T10:54:02.814Z,1028.93
2019-04-20T10:55:03.250Z,1028.93
2019-04-20T10:56:05.234Z,1028.84
2019-04-20T10:57:03.520Z,1028.84
2019-04-20T10:58:02.051Z,1028.84
2019-04-20T10:59:03.778Z,1028.84
2019-04-20T11:00:06.165Z,1028.77
2019-04-20T11:01:02.368Z,1028.77
2019-04-20T11:02:03.943Z,1028.77
2019-04-20T11:03:02.179Z,1028.77
2019-04-20T11:04:04.800Z,1028.93
2019-04-20T11:05:04.428Z,1028.93
2019-04-20T11:06:03.173Z,1028.93
2019-04-20T11:07:03.228Z,1028.93
2019-04-20T11:08:02.580Z,1028.9
2019-04-20T11:09:02.895Z,1028.9
2019-04-20T11:10:22.794Z,1028.9
2019-04-20T11:11:23.812Z,1028.9
2019-04-20T11:12:04.083Z,1028.92
2019-04-20T11:13:03.639Z,1028.92
2019-04-20T11:14:21.146Z,1028.92
2019-04-20T11:15:03.281Z,1028.92
2019-04-20T11:16:02.521Z,1028.91
2019-04-20T11:17:04.342Z,1028.91
2019-04-20T11:18:02.209Z,1028.91
2019-04-20T11:19:03.694Z,1028.91
2019-04-20T11:20:03.744Z,1028.96
2019-04-20T11:21:03.515Z,1028.96
2019-04-20T11:22:02.587Z,1028.96
2019-04-20T11:23:02.773Z,1028.96
2019-04-20T11:24:02.862Z,1028.87
2019-04-20T11:25:04.177Z,1028.87
2019-04-20T11:26:02.659Z,1028.87
2019-04-20T11:27:02.782Z,1028.87
2019-04-20T11:28:02.175Z,1028.79
2019-04-20T11:29:02.473Z,1028.79
2019-04-20T11:30:02.839Z,1028.79
2019-04-20T11:31:03.964Z,1028.79
2019-04-20T11:32:03.123Z,1028.83
2019-04-20T11:33:02.678Z,1028.83
2019-04-20T11:34:02.297Z,1028.83
2019-04-20T11:35:24.067Z,1028.83
2019-04-20T11:36:03.593Z,1028.82
2019-04-20T11:37:03.293Z,1028.82
2019-04-20T11:38:03.313Z,1028.82
2019-04-20T11:39:03.446Z,1028.82
2019-04-20T11:40:03.591Z,1028.68
2019-04-20T11:41:25.163Z,1028.68
2019-04-20T11:42:03.552Z,1028.68
2019-04-20T11:43:03.741Z,1028.68
2019-04-20T11:44:02.560Z,1028.73
2019-04-20T11:45:04.560Z,1028.73
2019-04-20T11:46:03.122Z,1028.73
2019-04-20T11:47:03.214Z,1028.62
2019-04-20T11:48:03.620Z,1028.62
2019-04-20T11:49:04.027Z,1028.62
2019-04-20T11:50:02.091Z,1028.62
2019-04-20T11:51:03.850Z,1028.6
2019-04-20T11:52:03.518Z,1028.6
2019-04-20T11:53:03.890Z,1028.6
2019-04-20T11:54:01.765Z,1028.6
2019-04-20T11:55:04.310Z,1028.57
2019-04-20T11:56:06.647Z,1028.57
2019-04-20T11:57:04.050Z,1028.57
2019-04-20T11:58:02.078Z,1028.57
2019-04-20T11:59:03.335Z,1028.58
2019-04-20T12:00:05.388Z,1028.58
2019-04-20T12:01:18.181Z,1028.58
2019-04-20T12:02:07.723Z,1028.58
2019-04-20T12:03:29.272Z,1028.53
2019-04-20T12:04:32.101Z,1028.53
2019-04-20T12:05:32.397Z,1028.53
2019-04-20T12:06:08.676Z,1028.53
2019-04-20T12:07:02.355Z,1028.5
2019-04-20T12:08:03.352Z,1028.5
2019-04-20T12:09:03.464Z,1028.5
2019-04-20T12:10:15.798Z,1028.5
2019-04-20T12:11:36.541Z,1028.41
2019-04-20T12:12:30.032Z,1028.41
2019-04-20T12:13:03.701Z,1028.41
2019-04-20T12:14:03.085Z,1028.41
2019-04-20T12:15:02.310Z,1028.4
2019-04-20T12:16:03.899Z,1028.4
2019-04-20T12:17:04.122Z,1028.4
2019-04-20T12:18:02.275Z,1028.4
2019-04-20T12:19:02.583Z,1028.31
2019-04-20T12:20:02.140Z,1028.31
2019-04-20T12:21:03.328Z,1028.31
2019-04-20T12:22:03.929Z,1028.31
2019-04-20T12:23:02.597Z,1028.28
2019-04-20T12:24:02.788Z,1028.28
2019-04-20T12:25:02.886Z,1028.28
2019-04-20T12:26:02.332Z,1028.28
2019-04-20T12:27:03.246Z,1028.25
2019-04-20T12:28:05.402Z,1028.25
2019-04-20T12:29:01.888Z,1028.25
2019-04-20T12:30:03.464Z,1028.25
2019-04-20T12:31:16.639Z,1028.23
2019-04-20T12:32:08.924Z,1028.23
2019-04-20T12:33:05.749Z,1028.23
2019-04-20T12:34:02.689Z,1028.23
2019-04-20T12:35:04.298Z,1028.26
2019-04-20T12:36:02.929Z,1028.26
2019-04-20T12:37:03.267Z,1028.26
2019-04-20T12:38:03.449Z,1028.26
2019-04-20T12:39:03.774Z,1028.23
2019-04-20T12:40:03.493Z,1028.23
2019-04-20T12:41:07.887Z,1028.23
2019-04-20T12:42:09.363Z,1028.23
2019-04-20T12:43:02.399Z,1028.19
2019-04-20T12:44:05.712Z,1028.19
2019-04-20T12:45:02.210Z,1028.19
2019-04-20T12:46:02.651Z,1028.19
2019-04-20T12:47:03.631Z,1028.24
2019-04-20T12:48:04.313Z,1028.24
2019-04-20T12:49:02.206Z,1028.24
2019-04-20T12:50:03.436Z,1028.24
2019-04-20T12:51:03.735Z,1028.18
2019-04-20T12:52:08.044Z,1028.18
2019-04-20T12:53:02.709Z,1028.18
2019-04-20T12:54:02.975Z,1028.18
2019-04-20T12:55:06.394Z,1028.2
2019-04-20T12:56:02.675Z,1028.2
2019-04-20T12:57:02.987Z,1028.2
2019-04-20T12:58:03.341Z,1028.2
2019-04-20T12:59:03.266Z,1028.1
2019-04-20T13:00:03.915Z,1028.1
2019-04-20T13:01:02.963Z,1028.1
2019-04-20T13:02:01.957Z,1028.1
2019-04-20T13:03:03.644Z,1028.06
2019-04-20T13:04:07.623Z,1028.06
2019-04-20T13:05:03.979Z,1028.06
2019-04-20T13:06:04.219Z,1028.06
2019-04-20T13:07:02.201Z,1027.97
2019-04-20T13:08:05.892Z,1027.97
2019-04-20T13:09:05.705Z,1027.97
2019-04-20T13:10:05.653Z,1027.97
2019-04-20T13:11:04.576Z,1027.98
2019-04-20T13:12:11.692Z,1027.98
2019-04-20T13:13:03.035Z,1027.98
2019-04-20T13:14:04.214Z,1027.98
2019-04-20T13:15:02.740Z,1027.88
2019-04-20T13:16:03.024Z,1027.88
2019-04-20T13:17:02.516Z,1027.88
2019-04-20T13:18:01.752Z,1027.88
2019-04-20T13:19:03.374Z,1027.93
2019-04-20T13:20:01.820Z,1027.93
2019-04-20T13:21:04.825Z,1027.93
2019-04-20T13:22:03.535Z,1027.93
2019-04-20T13:23:05.731Z,1027.87
2019-04-20T13:24:04.803Z,1027.87
2019-04-20T13:25:03.514Z,1027.87
2019-04-20T13:26:08.684Z,1027.87
2019-04-20T13:27:03.232Z,1027.93
2019-04-20T13:28:03.527Z,1027.93
2019-04-20T13:29:02.845Z,1027.93
2019-04-20T13:30:04.851Z,1027.88
2019-04-20T13:31:08.004Z,1027.88
2019-04-20T13:32:02.730Z,1027.88
2019-04-20T13:33:02.112Z,1027.88
2019-04-20T13:34:03.471Z,1027.81
2019-04-20T13:35:02.803Z,1027.81
2019-04-20T13:36:03.964Z,1027.81
2019-04-20T13:37:02.664Z,1027.81
2019-04-20T13:38:02.744Z,1027.76
2019-04-20T13:39:02.320Z,1027.76
2019-04-20T13:40:04.694Z,1027.76
2019-04-20T13:41:02.386Z,1027.76
2019-04-20T13:42:19.124Z,1027.72
2019-04-20T13:43:02.083Z,1027.72
2019-04-20T13:44:06.425Z,1027.72
2019-04-20T13:45:04.567Z,1027.72
2019-04-20T13:46:03.300Z,1027.65
2019-04-20T13:47:03.449Z,1027.65
2019-04-20T13:48:04.152Z,1027.65
2019-04-20T13:49:04.603Z,1027.65
2019-04-20T13:50:03.640Z,1027.66
2019-04-20T13:51:02.743Z,1027.66
2019-04-20T13:52:02.898Z,1027.66
2019-04-20T13:53:03.725Z,1027.66
2019-04-20T13:54:17.664Z,1027.56
2019-04-20T13:55:02.760Z,1027.56
2019-04-20T13:56:02.074Z,1027.56
2019-04-20T13:57:02.216Z,1027.56
2019-04-20T13:58:04.283Z,1027.57
2019-04-20T13:59:04.026Z,1027.57
2019-04-20T14:00:04.569Z,1027.57
2019-04-20T14:01:03.403Z,1027.57
2019-04-20T14:02:03.001Z,1027.5
2019-04-20T14:03:03.172Z,1027.5
2019-04-20T14:04:03.272Z,1027.5
2019-04-20T14:05:04.531Z,1027.5
2019-04-20T14:06:03.042Z,1027.48
2019-04-20T14:07:03.943Z,1027.48
2019-04-20T14:08:03.520Z,1027.48
2019-04-20T14:09:03.366Z,1027.48
2019-04-20T14:10:03.615Z,1027.47
2019-04-20T14:11:03.540Z,1027.47
2019-04-20T14:12:29.628Z,1027.47
2019-04-20T14:13:16.550Z,1027.47
2019-04-20T14:14:08.377Z,1027.43
2019-04-20T14:15:03.283Z,1027.43
2019-04-20T14:16:02.975Z,1027.43
2019-04-20T14:17:03.590Z,1027.43
2019-04-20T14:18:02.711Z,1027.32
2019-04-20T14:19:03.310Z,1027.32
2019-04-20T14:20:13.267Z,1027.32
2019-04-20T14:21:02.842Z,1027.32
2019-04-20T14:22:03.945Z,1027.36
2019-04-20T14:23:03.089Z,1027.36
2019-04-20T14:24:04.615Z,1027.36
2019-04-20T14:25:03.340Z,1027.36
2019-04-20T14:26:03.499Z,1027.27
2019-04-20T14:27:03.749Z,1027.27
2019-04-20T14:28:03.196Z,1027.27
2019-04-20T14:29:03.361Z,1027.27
2019-04-20T14:30:03.809Z,1027.12
2019-04-20T14:31:03.674Z,1027.12
2019-04-20T14:32:07.140Z,1027.12
2019-04-20T14:33:03.433Z,1027.12
2019-04-20T14:34:03.051Z,1027.14
2019-04-20T14:35:04.880Z,1027.14
2019-04-20T14:36:03.573Z,1027.14
2019-04-20T14:37:02.975Z,1027.14
2019-04-20T14:38:05.912Z,1027.15
2019-04-20T14:39:02.811Z,1027.15
2019-04-20T14:40:02.085Z,1027.15
2019-04-20T14:41:02.657Z,1027.15
2019-04-20T14:42:02.836Z,1027.1
2019-04-20T14:43:03.873Z,1027.1
2019-04-20T14:44:04.023Z,1027.1
2019-04-20T14:45:07.259Z,1027.1
2019-04-20T14:46:04.919Z,1027.02
2019-04-20T14:47:03.539Z,1027.02
2019-04-20T14:48:03.690Z,1027.02
2019-04-20T14:49:03.274Z,1027.02
2019-04-20T14:50:03.607Z,1027.11
2019-04-20T14:51:01.984Z,1027.11
2019-04-20T14:52:06.006Z,1027.11
2019-04-20T14:53:02.168Z,1027.11
2019-04-20T14:54:03.696Z,1026.89
2019-04-20T14:55:04.043Z,1026.89
2019-04-20T14:56:02.247Z,1026.89
2019-04-20T14:57:03.319Z,1026.89
2019-04-20T14:58:03.626Z,1026.93
2019-04-20T14:59:02.579Z,1026.93
2019-04-20T15:00:05.462Z,1026.93
2019-04-20T15:01:02.980Z,1026.93
2019-04-20T15:02:03.195Z,1026.86
2019-04-20T15:03:02.240Z,1026.86
2019-04-20T15:04:16.668Z,1026.86
2019-04-20T15:05:03.722Z,1026.86
2019-04-20T15:06:03.655Z,1026.9
2019-04-20T15:07:02.810Z,1026.9
2019-04-20T15:08:03.146Z,1026.9
2019-04-20T15:09:03.450Z,1026.88
2019-04-20T15:10:05.211Z,1026.88
2019-04-20T15:11:03.333Z,1026.88
2019-04-20T15:12:04.711Z,1026.88
2019-04-20T15:13:07.910Z,1026.87
2019-04-20T15:14:03.022Z,1026.87
2019-04-20T15:15:04.820Z,1026.87
2019-04-20T15:16:02.811Z,1026.87
2019-04-20T15:17:02.995Z,1026.8
2019-04-20T15:18:01.916Z,1026.8
2019-04-20T15:19:03.478Z,1026.8
2019-04-20T15:20:03.867Z,1026.8
2019-04-20T15:21:04.083Z,1026.75
2019-04-20T15:22:03.144Z,1026.75
2019-04-20T15:23:03.388Z,1026.75
2019-04-20T15:24:03.593Z,1026.75
2019-04-20T15:25:03.670Z,1026.71
2019-04-20T15:26:02.798Z,1026.71
2019-04-20T15:27:02.901Z,1026.71
2019-04-20T15:28:03.123Z,1026.71
2019-04-20T15:29:02.499Z,1026.71
2019-04-20T15:30:04.381Z,1026.71
2019-04-20T15:31:02.942Z,1026.71
2019-04-20T15:32:02.445Z,1026.71
2019-04-20T15:33:03.518Z,1026.75
2019-04-20T15:34:04.793Z,1026.75
2019-04-20T15:35:04.745Z,1026.75
2019-04-20T15:36:02.574Z,1026.75
2019-04-20T15:37:02.895Z,1026.65
2019-04-20T15:38:03.298Z,1026.65
2019-04-20T15:39:03.444Z,1026.65
2019-04-20T15:40:03.303Z,1026.65
2019-04-20T15:41:03.389Z,1026.63
2019-04-20T15:42:03.696Z,1026.63
2019-04-20T15:43:17.448Z,1026.63
2019-04-20T15:44:02.056Z,1026.63
2019-04-20T15:45:05.191Z,1026.65
2019-04-20T15:46:03.748Z,1026.65
2019-04-20T15:47:04.089Z,1026.65
2019-04-20T15:48:04.162Z,1026.65
2019-04-20T15:49:02.349Z,1026.57
2019-04-20T15:50:03.975Z,1026.57
2019-04-20T15:51:03.629Z,1026.57
2019-04-20T15:52:05.800Z,1026.57
2019-04-20T15:53:05.849Z,1026.57
2019-04-20T15:54:02.317Z,1026.57
2019-04-20T15:55:26.468Z,1026.57
2019-04-20T15:56:09.826Z,1026.57
2019-04-20T15:57:19.648Z,1026.57
2019-04-20T15:58:07.129Z,1026.57
2019-04-20T15:59:04.254Z,1026.57
2019-04-20T16:00:06.549Z,1026.57
2019-04-20T16:01:04.593Z,1026.57
2019-04-20T16:02:03.495Z,1026.57
2019-04-20T16:03:03.722Z,1026.57
2019-04-20T16:04:05.502Z,1026.57
2019-04-20T16:05:04.326Z,1026.47
2019-04-20T16:06:05.214Z,1026.47
2019-04-20T16:07:03.697Z,1026.47
2019-04-20T16:08:07.049Z,1026.47
2019-04-20T16:09:04.017Z,1026.52
2019-04-20T16:10:05.240Z,1026.52
2019-04-20T16:11:05.227Z,1026.52
2019-04-20T16:12:03.048Z,1026.52
2019-04-20T16:13:26.063Z,1026.47
2019-04-20T16:14:05.402Z,1026.47
2019-04-20T16:15:03.821Z,1026.47
2019-04-20T16:16:05.673Z,1026.47
2019-04-20T16:17:10.425Z,1026.49
2019-04-20T16:18:03.418Z,1026.49
2019-04-20T16:19:25.061Z,1026.49
2019-04-20T16:20:17.288Z,1026.49
2019-04-20T16:21:19.620Z,1026.45
2019-04-20T16:22:05.835Z,1026.45
2019-04-20T16:23:03.164Z,1026.45
2019-04-20T16:24:02.169Z,1026.45
2019-04-20T16:25:03.856Z,1026.47
2019-04-20T16:26:04.080Z,1026.47
2019-04-20T16:27:03.275Z,1026.47
2019-04-20T16:28:03.516Z,1026.47
2019-04-20T16:29:03.726Z,1026.38
2019-04-20T16:30:02.902Z,1026.38
2019-04-20T16:31:03.469Z,1026.38
2019-04-20T16:32:02.883Z,1026.38
2019-04-20T16:33:03.152Z,1026.34
2019-04-20T16:34:03.722Z,1026.34
2019-04-20T16:35:04.426Z,1026.34
2019-04-20T16:36:03.068Z,1026.34
2019-04-20T16:37:02.628Z,1026.38
2019-04-20T16:38:02.944Z,1026.38
2019-04-20T16:39:04.003Z,1026.38
2019-04-20T16:40:06.529Z,1026.38
2019-04-20T16:41:04.125Z,1026.3
2019-04-20T16:42:02.740Z,1026.3
2019-04-20T16:43:18.000Z,1026.3
2019-04-20T16:44:03.323Z,1026.3
2019-04-20T16:45:03.164Z,1026.3
2019-04-20T16:46:03.678Z,1026.3
2019-04-20T16:47:03.965Z,1026.3
2019-04-20T16:48:06.602Z,1026.3
2019-04-20T16:49:02.975Z,1026.21
2019-04-20T16:50:02.123Z,1026.21
2019-04-20T16:51:03.320Z,1026.21
2019-04-20T16:52:03.401Z,1026.26
2019-04-20T16:53:01.699Z,1026.26
2019-04-20T16:54:01.945Z,1026.26
2019-04-20T16:55:03.863Z,1026.26
2019-04-20T16:56:04.314Z,1026.18
2019-04-20T16:57:02.975Z,1026.18
2019-04-20T16:58:02.135Z,1026.18
2019-04-20T16:59:12.208Z,1026.18
2019-04-20T17:00:07.361Z,1026.1
2019-04-20T17:01:03.828Z,1026.1
2019-04-20T17:02:02.881Z,1026.1
2019-04-20T17:03:03.012Z,1026.1
2019-04-20T17:04:16.405Z,1026.23
2019-04-20T17:05:03.447Z,1026.23
2019-04-20T17:06:06.887Z,1026.23
2019-04-20T17:07:02.775Z,1026.23
2019-04-20T17:08:03.124Z,1026.04
2019-04-20T17:09:03.324Z,1026.04
2019-04-20T17:10:04.134Z,1026.04
2019-04-20T17:11:03.809Z,1026.04
2019-04-20T17:12:03.998Z,1026.15
2019-04-20T17:13:03.980Z,1026.15
2019-04-20T17:14:03.937Z,1026.15
2019-04-20T17:15:03.479Z,1026.15
2019-04-20T17:16:04.088Z,1026.18
2019-04-20T17:17:03.700Z,1026.18
2019-04-20T17:18:01.898Z,1026.18
2019-04-20T17:19:02.078Z,1026.18
2019-04-20T17:20:02.354Z,1026.1
2019-04-20T17:21:20.270Z,1026.1
2019-04-20T17:22:05.410Z,1026.1
2019-04-20T17:23:08.452Z,1026.1
2019-04-20T17:24:02.105Z,1026.06
2019-04-20T17:25:03.854Z,1026.06
2019-04-20T17:26:03.859Z,1026.06
2019-04-20T17:27:03.615Z,1026.06
2019-04-20T17:28:03.060Z,1026.14
2019-04-20T17:29:03.835Z,1026.14
2019-04-20T17:30:05.120Z,1026.14
2019-04-20T17:31:03.408Z,1026.14
2019-04-20T17:32:03.599Z,1026.01
2019-04-20T17:33:04.198Z,1026.01
2019-04-20T17:34:42.981Z,1026.01
2019-04-20T17:35:20.627Z,1026.01
2019-04-20T17:36:19.003Z,1026.05
2019-04-20T17:37:02.694Z,1026.05
2019-04-20T17:38:04.637Z,1026.05
2019-04-20T17:39:14.022Z,1026.05
2019-04-20T17:40:46.160Z,1025.99
2019-04-20T17:41:59.478Z,1025.99
2019-04-20T17:42:41.400Z,1025.99
2019-04-20T17:43:25.170Z,1025.99
2019-04-20T17:44:41.330Z,1026.07
2019-04-20T17:46:36.748Z,1026.07
2019-04-20T17:48:37.136Z,1025.88
2019-04-20T17:49:41.317Z,1025.88
2019-04-20T17:50:56.161Z,1025.88
2019-04-20T17:52:05.040Z,1025.88
2019-04-20T17:53:37.640Z,1025.89
2019-04-20T17:54:08.897Z,1025.89
2019-04-20T17:55:03.792Z,1025.89
2019-04-20T17:56:06.928Z,1025.86
2019-04-20T17:57:02.728Z,1025.86
2019-04-20T17:58:17.918Z,1025.86
2019-04-20T17:59:02.375Z,1025.86
2019-04-20T18:00:14.837Z,1025.93
2019-04-20T18:01:20.479Z,1025.93
2019-04-20T18:02:32.818Z,1025.93
2019-04-20T18:04:11.534Z,1025.93
2019-04-20T18:04:43.002Z,1025.94
2019-04-20T18:06:47.718Z,1025.94
2019-04-20T18:07:58.809Z,1025.94
2019-04-20T18:10:47.260Z,1025.95
2019-04-20T18:11:20.088Z,1025.95
2019-04-20T18:12:21.699Z,1026.01
2019-04-20T18:13:19.633Z,1026.01
2019-04-20T18:15:48.853Z,1026.01
2019-04-20T18:16:56.296Z,1026.09
2019-04-20T18:17:40.271Z,1026.09
2019-04-20T18:18:40.888Z,1026.09
2019-04-20T18:19:21.930Z,1026.09
2019-04-20T18:20:05.088Z,1026.06
2019-04-20T18:21:03.488Z,1026.06
2019-04-20T18:22:03.555Z,1026.06
2019-04-20T18:23:04.322Z,1026.06
2019-04-20T18:24:23.967Z,1026.12
2019-04-20T18:25:52.241Z,1026.12
2019-04-20T18:26:45.491Z,1026.12
2019-04-20T18:28:40.081Z,1026.08
2019-04-20T18:29:53.001Z,1026.08
2019-04-20T18:30:39.047Z,1026.08
2019-04-20T18:31:09.062Z,1026.08
2019-04-20T18:32:03.384Z,1025.93
2019-04-20T18:33:03.528Z,1025.93
2019-04-20T18:34:17.938Z,1025.93
2019-04-20T18:35:08.660Z,1025.93
2019-04-20T18:36:02.916Z,1026.02
2019-04-20T18:37:16.428Z,1026.02
2019-04-20T18:38:15.190Z,1026.02
2019-04-20T18:39:13.613Z,1025.97
2019-04-20T18:40:14.370Z,1025.97
2019-04-20T18:41:19.003Z,1025.97
2019-04-20T18:42:26.994Z,1025.97